ダッカ の空港の天気 - METARとTAF

シャージャラル国際空港(ダッカ) ( VGHS / DAC ) - バングラデシュ ダッカ
飛行場実況気象(Metar)
観測時間02/18 05:00 BDT (02/17 23:00 UTC)
風向・風速静穏 0m/s
視程2000m
天気現象もや
なし
気温16℃
湿度88%
気圧1011hPa
METARVGHS 172300Z 00000KT 2000 BR NSC 16/14 Q1011 TEMPO S/VIS 1500M
過去の天気等 Google飛行場航空写真 Wunderground天気予報

過去48時間のMETAR

飛行場予報(TAF)
発表時間: 2/17 23:00 BDT (2/17 17:00 UTC)
予報対象時間: 18日0時 BDT ~ 19日6時 BDT
風向・風速西 3m/s
視程3500m
天気現象煙霧
なし
18日4時 BDT ~ 18日10時 BDT に一時的に
風向・風速西北西 2m/s
視程2500m
天気現象煙霧
全天の4割程度の雲 雲底高度 610m
18日12時 BDT ~ 18日14時 BDT に徐々に
風向・風速西北西 3m/s
視程3500m
天気現象煙霧
全天の4割程度の雲 雲底高度 3050m
19日3時 BDT ~ 19日5時 BDT に徐々に
風向・風速西 2m/s
視程2500m
天気現象煙霧
全天の4割程度の雲 雲底高度 3050m
TAF VGHS 171700Z 1718/1824 28005KT 3500 HZ NSC
TEMPO 1722/1804 29004KT 2500 HZ SCT020
BECMG 1806/1808 30006KT 3500 HZ SCT100
BECMG 1821/1823 28004KT 2500 HZ SCT100